Time;durP1;ratioP1;P1;durP2;ratioP2;P2;SDS_P1;SDS_P2;PMS_P1;PMS_P2;Temp;Humidity;BMP_temperature;BMP_pressure;BME280_temperature;BME280_humidity;BME280_pressure;Samples;Min_cycle;Max_cycle;Signal;HPM_P1;HPM_P2
2022/07/11 00:02:24;;;;;;;8.77;2.00;;;;;;;;;;5037078;28;20013;-74
2022/07/11 00:04:51;;;;;;;7.60;1.90;;;;;;;;;;5047025;28;20164;-76
2022/07/11 00:07:17;;;;;;;6.32;2.00;;;;;;;;;;5033804;28;20024;-75
2022/07/11 00:09:43;;;;;;;11.48;2.42;;;;;;;;;;5034369;28;20359;-76
2022/07/11 00:12:09;;;;;;;12.25;2.70;;;;;;;;;;5033318;28;20026;-74
2022/07/11 00:14:35;;;;;;;9.07;2.28;;;;;;;;;;5033227;28;20489;-75
2022/07/11 00:17:01;;;;;;;12.32;2.60;;;;;;;;;;5033026;28;20430;-76
2022/07/11 00:19:27;;;;;;;10.27;2.22;;;;;;;;;;5033154;28;20025;-76
2022/07/11 00:21:53;;;;;;;7.45;1.90;;;;;;;;;;5032933;28;20029;-76
2022/07/11 00:24:20;;;;;;;15.13;2.30;;;;;;;;;;5033040;28;20553;-76
2022/07/11 00:26:49;;;;;;;9.38;2.28;;;;;;;;;;5031223;28;20037;-75
2022/07/11 00:29:15;;;;;;;12.70;2.60;;;;;;;;;;5032889;28;20049;-76
2022/07/11 00:31:41;;;;;;;9.50;2.55;;;;;;;;;;5032861;28;20448;-76
2022/07/11 00:34:07;;;;;;;12.77;2.60;;;;;;;;;;5032988;28;20398;-76
2022/07/11 00:36:33;;;;;;;8.70;2.30;;;;;;;;;;5032544;28;20486;-76
2022/07/11 00:38:59;;;;;;;7.82;1.98;;;;;;;;;;5032623;28;20029;-76
2022/07/11 00:41:25;;;;;;;9.05;2.08;;;;;;;;;;5032658;28;20550;-76
2022/07/11 00:43:53;;;;;;;12.20;2.38;;;;;;;;;;5032466;28;20053;-76
2022/07/11 00:46:19;;;;;;;10.77;1.70;;;;;;;;;;5032402;28;20037;-76
2022/07/11 00:48:45;;;;;;;7.38;1.55;;;;;;;;;;5033405;28;20032;-76
2022/07/11 00:51:12;;;;;;;8.10;1.98;;;;;;;;;;5036583;28;20081;-76
2022/07/11 00:53:39;;;;;;;9.48;1.80;;;;;;;;;;5036113;28;20509;-76
2022/07/11 00:56:06;;;;;;;8.63;1.73;;;;;;;;;;5036433;28;20053;-76
2022/07/11 00:58:32;;;;;;;8.07;1.73;;;;;;;;;;5034203;28;20029;-76
2022/07/11 01:00:58;;;;;;;9.02;1.95;;;;;;;;;;5032272;28;20459;-76
2022/07/11 01:03:24;;;;;;;10.88;2.20;;;;;;;;;;5032438;28;20029;-76
2022/07/11 01:05:50;;;;;;;14.80;2.28;;;;;;;;;;5032522;28;20082;-76
2022/07/11 01:08:16;;;;;;;9.00;2.35;;;;;;;;;;5032022;28;20037;-76
2022/07/11 01:10:42;;;;;;;7.72;2.10;;;;;;;;;;5031978;28;20041;-75
2022/07/11 01:13:08;;;;;;;12.18;2.35;;;;;;;;;;5031902;28;20032;-76
2022/07/11 01:15:35;;;;;;;9.05;2.22;;;;;;;;;;5032129;28;20329;-75
2022/07/11 01:18:01;;;;;;;10.10;1.88;;;;;;;;;;5032399;28;20429;-77
2022/07/11 01:20:28;;;;;;;8.05;1.85;;;;;;;;;;5031057;28;20032;-74
2022/07/11 01:22:56;;;;;;;7.07;1.98;;;;;;;;;;5038637;28;20052;-74
2022/07/11 01:25:32;;;;;;;7.93;2.00;;;;;;;;;;5056780;28;20024;-74
2022/07/11 01:27:59;;;;;;;6.88;2.00;;;;;;;;;;5056553;28;20037;-74
2022/07/11 01:30:25;;;;;;;7.88;1.77;;;;;;;;;;5050971;28;20026;-75
2022/07/11 01:32:52;;;;;;;6.78;2.08;;;;;;;;;;5046130;28;20064;-75
2022/07/11 01:35:18;;;;;;;9.27;2.00;;;;;;;;;;5043792;28;20033;-75
2022/07/11 01:37:44;;;;;;;8.40;1.80;;;;;;;;;;5032812;28;20030;-75
2022/07/11 01:40:10;;;;;;;9.07;2.05;;;;;;;;;;5031887;28;20079;-75
2022/07/11 01:42:36;;;;;;;6.18;1.90;;;;;;;;;;5030936;28;20026;-75
2022/07/11 01:45:02;;;;;;;6.47;1.70;;;;;;;;;;5031871;28;20026;-75
2022/07/11 01:47:28;;;;;;;9.50;1.95;;;;;;;;;;5031650;28;20593;-75
2022/07/11 01:49:55;;;;;;;8.05;1.85;;;;;;;;;;5032134;28;20055;-74
2022/07/11 01:52:21;;;;;;;13.65;1.60;;;;;;;;;;5031926;28;20068;-75
2022/07/11 01:54:47;;;;;;;5.70;1.52;;;;;;;;;;5031940;28;20026;-75
2022/07/11 01:57:13;;;;;;;10.25;1.70;;;;;;;;;;5030341;28;20029;-75
2022/07/11 01:59:39;;;;;;;10.00;1.45;;;;;;;;;;5033955;28;20482;-76
2022/07/11 02:02:05;;;;;;;8.43;1.85;;;;;;;;;;5034618;28;20036;-75
2022/07/11 02:04:31;;;;;;;6.72;1.75;;;;;;;;;;5043797;28;20061;-75
2022/07/11 02:06:57;;;;;;;4.60;1.45;;;;;;;;;;5033418;28;20029;-74
2022/07/11 02:09:23;;;;;;;8.02;2.00;;;;;;;;;;5034329;28;20036;-75
2022/07/11 02:11:49;;;;;;;7.53;1.90;;;;;;;;;;5034174;28;20391;-76
2022/07/11 02:14:15;;;;;;;9.98;2.88;;;;;;;;;;5034493;28;20108;-76
2022/07/11 02:16:41;;;;;;;6.40;2.10;;;;;;;;;;5034277;28;20025;-75
2022/07/11 02:19:08;;;;;;;7.28;1.98;;;;;;;;;;5034149;28;20398;-76
2022/07/11 02:21:34;;;;;;;10.52;1.70;;;;;;;;;;5034359;28;20021;-76
2022/07/11 02:24:00;;;;;;;8.25;1.40;;;;;;;;;;5034040;28;20449;-75
2022/07/11 02:26:26;;;;;;;7.97;1.65;;;;;;;;;;5034779;28;20495;-76
2022/07/11 02:28:53;;;;;;;7.78;2.05;;;;;;;;;;5031674;28;20097;-77
2022/07/11 02:31:19;;;;;;;12.18;1.90;;;;;;;;;;5033505;28;20485;-76
2022/07/11 02:33:45;;;;;;;4.97;1.50;;;;;;;;;;5033661;28;20018;-76
2022/07/11 02:36:10;;;;;;;4.85;1.60;;;;;;;;;;5033669;28;20092;-76
2022/07/11 02:38:36;;;;;;;6.88;1.60;;;;;;;;;;5033729;28;20075;-76
2022/07/11 02:41:03;;;;;;;10.07;1.88;;;;;;;;;;5033520;28;20396;-76
2022/07/11 02:43:29;;;;;;;7.00;1.60;;;;;;;;;;5033437;28;20536;-76
2022/07/11 02:45:55;;;;;;;7.85;1.58;;;;;;;;;;5031647;28;20025;-76
2022/07/11 02:48:21;;;;;;;6.55;1.50;;;;;;;;;;5032261;28;20034;-76
2022/07/11 02:50:47;;;;;;;6.72;2.10;;;;;;;;;;5033004;28;20030;-76
2022/07/11 02:53:13;;;;;;;6.50;1.60;;;;;;;;;;5033215;28;20022;-76
2022/07/11 02:55:39;;;;;;;7.63;1.55;;;;;;;;;;5031857;28;20079;-76
2022/07/11 02:58:05;;;;;;;10.70;1.52;;;;;;;;;;4996759;28;1049769;-76
2022/07/11 03:00:32;;;;;;;7.97;1.80;;;;;;;;;;5034369;28;20026;-76
2022/07/11 03:02:58;;;;;;;4.65;1.52;;;;;;;;;;5032804;28;20035;-76
2022/07/11 03:05:25;;;;;;;6.93;1.55;;;;;;;;;;5033976;28;20025;-75
2022/07/11 03:07:51;;;;;;;6.18;1.80;;;;;;;;;;5035694;28;20029;-75
2022/07/11 03:10:17;;;;;;;8.07;1.85;;;;;;;;;;5038893;28;20108;-75
2022/07/11 03:12:45;;;;;;;6.97;1.67;;;;;;;;;;5039731;28;20021;-76
2022/07/11 03:15:11;;;;;;;6.70;1.80;;;;;;;;;;5038420;28;20043;-75
2022/07/11 03:17:36;;;;;;;5.78;1.80;;;;;;;;;;5034462;28;20075;-76
2022/07/11 03:20:06;;;;;;;13.35;5.03;;;;;;;;;;5032674;28;20103;-75
2022/07/11 03:22:32;;;;;;;6.60;1.90;;;;;;;;;;5034511;28;20386;-75
2022/07/11 03:25:00;;;;;;;8.23;1.90;;;;;;;;;;5032582;28;20032;-76
2022/07/11 03:27:26;;;;;;;6.22;1.67;;;;;;;;;;5037053;28;20025;-75
2022/07/11 03:29:52;;;;;;;7.65;1.55;;;;;;;;;;5038548;28;20120;-76
2022/07/11 03:32:20;;;;;;;5.07;1.48;;;;;;;;;;5033774;28;20045;-76
2022/07/11 03:35:40;;;;;;;8.15;2.13;;;;;;;;;;5033808;28;20029;-76
2022/07/11 03:37:32;;;;;;;5.65;1.92;;;;;;;;;;5033688;28;20026;-76
2022/07/11 03:39:58;;;;;;;6.15;1.90;;;;;;;;;;5034812;28;20423;-75
2022/07/11 03:42:25;;;;;;;10.77;2.25;;;;;;;;;;5037228;28;20499;-75
2022/07/11 03:44:53;;;;;;;9.07;2.17;;;;;;;;;;5036220;28;20455;-76
2022/07/11 03:47:19;;;;;;;5.75;1.52;;;;;;;;;;5034025;28;20025;-75
2022/07/11 03:49:46;;;;;;;7.00;1.85;;;;;;;;;;5033539;28;20032;-75
2022/07/11 03:52:12;;;;;;;10.10;1.80;;;;;;;;;;5033487;28;20029;-76
2022/07/11 03:54:38;;;;;;;11.20;2.47;;;;;;;;;;5034290;28;20091;-76
2022/07/11 03:57:04;;;;;;;7.47;2.08;;;;;;;;;;5033870;28;20029;-77
2022/07/11 03:59:30;;;;;;;5.97;2.17;;;;;;;;;;5034539;28;20095;-76
2022/07/11 04:01:56;;;;;;;6.20;1.60;;;;;;;;;;5034327;28;20033;-75
2022/07/11 04:04:22;;;;;;;11.95;2.10;;;;;;;;;;5041945;28;20032;-75
2022/07/11 04:06:47;;;;;;;4.63;2.13;;;;;;;;;;5041492;28;20104;-75
2022/07/11 04:09:13;;;;;;;6.60;1.50;;;;;;;;;;5040560;28;20430;-75
2022/07/11 04:11:39;;;;;;;6.15;2.00;;;;;;;;;;5043722;28;20033;-75
2022/07/11 04:14:05;;;;;;;8.55;2.00;;;;;;;;;;5047331;28;20028;-75
2022/07/11 04:16:31;;;;;;;9.27;1.98;;;;;;;;;;5042506;28;20490;-76
2022/07/11 04:18:57;;;;;;;6.82;1.90;;;;;;;;;;5033094;28;20032;-75
2022/07/11 04:21:23;;;;;;;11.00;2.30;;;;;;;;;;5033034;28;20033;-75
2022/07/11 04:23:49;;;;;;;8.38;2.15;;;;;;;;;;5034604;28;20033;-78
2022/07/11 04:26:15;;;;;;;5.22;2.17;;;;;;;;;;5033727;28;20026;-76
2022/07/11 04:28:41;;;;;;;13.60;2.13;;;;;;;;;;5040138;28;20382;-76
2022/07/11 04:31:07;;;;;;;9.70;2.80;;;;;;;;;;5040573;28;20051;-76
2022/07/11 04:33:33;;;;;;;10.95;2.17;;;;;;;;;;5040942;28;20022;-76
2022/07/11 04:35:59;;;;;;;7.20;2.10;;;;;;;;;;5037447;28;20026;-76
2022/07/11 04:38:25;;;;;;;11.45;2.58;;;;;;;;;;5033102;28;20312;-75
2022/07/11 04:40:51;;;;;;;9.77;2.47;;;;;;;;;;5031241;28;20550;-75
2022/07/11 04:43:17;;;;;;;7.43;2.55;;;;;;;;;;5033778;28;20021;-75
2022/07/11 04:45:43;;;;;;;10.20;2.40;;;;;;;;;;5035442;28;20032;-74
2022/07/11 04:48:09;;;;;;;10.05;2.58;;;;;;;;;;5031798;28;20469;-74
2022/07/11 04:50:35;;;;;;;19.60;6.13;;;;;;;;;;5032662;28;20098;-75
2022/07/11 04:53:02;;;;;;;19.58;3.75;;;;;;;;;;5038967;28;20025;-74
2022/07/11 04:55:28;;;;;;;10.07;2.38;;;;;;;;;;5033513;28;20029;-74
2022/07/11 04:57:54;;;;;;;14.57;2.13;;;;;;;;;;5033679;28;20029;-74
2022/07/11 05:00:19;;;;;;;11.55;2.30;;;;;;;;;;5032670;28;20394;-74
2022/07/11 05:02:46;;;;;;;17.50;2.40;;;;;;;;;;5034839;28;20124;-74
2022/07/11 05:05:12;;;;;;;10.55;2.25;;;;;;;;;;5036859;28;20072;-76
2022/07/11 05:07:38;;;;;;;11.95;2.42;;;;;;;;;;5034594;28;20068;-76
2022/07/11 05:10:04;;;;;;;7.72;1.80;;;;;;;;;;5033309;28;20045;-75
2022/07/11 05:12:30;;;;;;;17.20;2.70;;;;;;;;;;5031247;28;20029;-76
2022/07/11 05:14:58;;;;;;;12.35;2.80;;;;;;;;;;5032140;28;20494;-77
2022/07/11 05:17:24;;;;;;;11.70;2.25;;;;;;;;;;5033224;28;20018;-75
2022/07/11 05:19:50;;;;;;;17.73;2.17;;;;;;;;;;5032496;28;20112;-76
2022/07/11 05:22:16;;;;;;;12.98;2.50;;;;;;;;;;5032164;28;20114;-76
2022/07/11 05:24:42;;;;;;;8.90;2.05;;;;;;;;;;5032256;28;20030;-75
2022/07/11 05:27:08;;;;;;;12.52;2.90;;;;;;;;;;5032192;28;20038;-75
2022/07/11 05:29:34;;;;;;;12.77;2.33;;;;;;;;;;5031983;28;20034;-75
2022/07/11 05:32:00;;;;;;;17.38;3.00;;;;;;;;;;5031807;28;20072;-72
2022/07/11 05:34:26;;;;;;;17.10;2.47;;;;;;;;;;5034151;28;20029;-76
2022/07/11 05:36:53;;;;;;;13.73;2.20;;;;;;;;;;5034366;28;20029;-74
2022/07/11 05:39:19;;;;;;;9.18;2.17;;;;;;;;;;5035945;28;20041;-74
2022/07/11 05:41:45;;;;;;;17.13;2.13;;;;;;;;;;5036011;28;20033;-73
2022/07/11 05:44:11;;;;;;;13.82;2.30;;;;;;;;;;5036084;28;20025;-74
2022/07/11 05:46:39;;;;;;;16.33;2.58;;;;;;;;;;5035931;28;20029;-74
2022/07/11 05:49:06;;;;;;;17.92;2.50;;;;;;;;;;5036085;28;20483;-74
2022/07/11 05:51:32;;;;;;;9.52;2.08;;;;;;;;;;5036049;28;20537;-74
2022/07/11 05:53:58;;;;;;;10.38;2.20;;;;;;;;;;5036161;28;20113;-74
2022/07/11 05:56:25;;;;;;;14.25;2.25;;;;;;;;;;5035965;28;20025;-73
2022/07/11 05:58:51;;;;;;;11.02;2.13;;;;;;;;;;5035707;28;20040;-74
2022/07/11 06:01:17;;;;;;;12.40;3.05;;;;;;;;;;5036269;28;20077;-76
2022/07/11 06:03:43;;;;;;;9.10;2.42;;;;;;;;;;5036011;28;20105;-74
2022/07/11 06:06:10;;;;;;;13.40;2.35;;;;;;;;;;5035950;28;20032;-75
2022/07/11 06:08:42;;;;;;;8.02;1.98;;;;;;;;;;5035041;28;20095;-75
2022/07/11 06:11:10;;;;;;;16.70;2.17;;;;;;;;;;5036971;28;20509;-75
2022/07/11 06:13:37;;;;;;;16.65;2.45;;;;;;;;;;5036264;28;20445;-74
2022/07/11 06:16:03;;;;;;;13.02;2.03;;;;;;;;;;5035618;28;20021;-75
2022/07/11 06:18:29;;;;;;;12.80;2.55;;;;;;;;;;5035985;28;20036;-77
2022/07/11 06:20:55;;;;;;;13.43;3.05;;;;;;;;;;5036243;28;20097;-76
2022/07/11 06:23:21;;;;;;;13.38;2.00;;;;;;;;;;5036370;28;20026;-75
2022/07/11 06:25:47;;;;;;;15.68;2.38;;;;;;;;;;5036292;28;20025;-76
2022/07/11 06:28:13;;;;;;;17.40;1.95;;;;;;;;;;5036841;28;20467;-76
2022/07/11 06:30:39;;;;;;;11.48;2.53;;;;;;;;;;5036680;28;20030;-78
2022/07/11 06:33:05;;;;;;;11.70;2.75;;;;;;;;;;5035577;28;20113;-76
2022/07/11 06:35:31;;;;;;;13.13;1.80;;;;;;;;;;5036091;28;20021;-74
2022/07/11 06:37:57;;;;;;;10.95;2.03;;;;;;;;;;5036565;28;20040;-74
2022/07/11 06:40:23;;;;;;;14.40;2.53;;;;;;;;;;5044403;28;20040;-74
2022/07/11 06:42:49;;;;;;;11.52;1.70;;;;;;;;;;5058429;28;20033;-74
2022/07/11 06:45:15;;;;;;;11.48;2.10;;;;;;;;;;5047134;28;20041;-76
2022/07/11 06:47:41;;;;;;;11.60;1.58;;;;;;;;;;5046976;28;20445;-74
2022/07/11 06:50:08;;;;;;;9.27;1.50;;;;;;;;;;5055813;28;20022;-75
2022/07/11 06:52:34;;;;;;;14.25;2.30;;;;;;;;;;5056369;28;20035;-76
2022/07/11 06:55:00;;;;;;;17.65;2.13;;;;;;;;;;5035743;28;20096;-76
2022/07/11 06:57:26;;;;;;;12.90;2.00;;;;;;;;;;5034148;28;20603;-76
2022/07/11 06:59:52;;;;;;;9.25;1.65;;;;;;;;;;5034913;28;20083;-75
2022/07/11 07:02:18;;;;;;;10.35;1.70;;;;;;;;;;5034616;28;20029;-76
2022/07/11 07:04:44;;;;;;;12.32;2.47;;;;;;;;;;5035270;28;20025;-74
2022/07/11 07:07:09;;;;;;;13.20;2.10;;;;;;;;;;5034617;28;20021;-76
2022/07/11 07:09:35;;;;;;;11.63;2.20;;;;;;;;;;5034820;28;20034;-75
2022/07/11 07:12:01;;;;;;;14.30;2.03;;;;;;;;;;5034850;28;20036;-76
2022/07/11 07:14:27;;;;;;;12.25;2.00;;;;;;;;;;5034769;28;20033;-76
2022/07/11 07:16:53;;;;;;;8.50;1.75;;;;;;;;;;5034678;28;20104;-74
2022/07/11 07:19:20;;;;;;;5.63;1.70;;;;;;;;;;5035952;28;20052;-75
2022/07/11 07:21:47;;;;;;;10.02;1.83;;;;;;;;;;5036111;28;20513;-77
2022/07/11 07:24:13;;;;;;;8.05;1.48;;;;;;;;;;5035441;28;20044;-75
2022/07/11 07:26:39;;;;;;;10.02;1.75;;;;;;;;;;5046378;28;20033;-76
2022/07/11 07:29:05;;;;;;;10.60;1.55;;;;;;;;;;5037255;28;20036;-75
2022/07/11 07:31:31;;;;;;;15.07;2.05;;;;;;;;;;5038424;28;20032;-76
2022/07/11 07:33:57;;;;;;;10.02;1.90;;;;;;;;;;5034688;28;20100;-75
2022/07/11 07:36:23;;;;;;;8.23;1.40;;;;;;;;;;5035425;28;20091;-79
2022/07/11 07:38:49;;;;;;;7.93;1.45;;;;;;;;;;5039905;28;20049;-78
2022/07/11 07:41:16;;;;;;;9.00;1.55;;;;;;;;;;5036509;28;20107;-77
2022/07/11 07:43:42;;;;;;;12.57;1.98;;;;;;;;;;5037340;28;20032;-76
2022/07/11 07:46:09;;;;;;;9.50;2.65;;;;;;;;;;5036654;28;20398;-76
2022/07/11 07:48:35;;;;;;;7.88;1.50;;;;;;;;;;5034105;28;20408;-76
2022/07/11 07:51:01;;;;;;;11.95;1.80;;;;;;;;;;5033453;28;20032;-76
2022/07/11 07:53:27;;;;;;;7.05;1.48;;;;;;;;;;5032550;28;20490;-77
2022/07/11 07:55:53;;;;;;;10.88;1.58;;;;;;;;;;5033322;28;20542;-76
2022/07/11 08:03:34;;;;;;;8.27;1.33;;;;;;;;;;5094690;28;20515;-72
2022/07/11 08:06:00;;;;;;;10.82;1.42;;;;;;;;;;5094299;28;20032;-73
2022/07/11 08:08:26;;;;;;;12.00;1.38;;;;;;;;;;5102309;28;20035;-70
2022/07/11 08:10:52;;;;;;;4.05;1.00;;;;;;;;;;5092386;28;20427;-74
2022/07/11 08:13:19;;;;;;;6.38;1.42;;;;;;;;;;5090332;28;20035;-72
2022/07/11 08:15:46;;;;;;;9.38;1.48;;;;;;;;;;5093936;28;20016;-71
2022/07/11 08:18:12;;;;;;;8.05;1.38;;;;;;;;;;5098036;28;20047;-72
2022/07/11 08:20:38;;;;;;;7.10;1.20;;;;;;;;;;5096913;28;20464;-70
2022/07/11 08:23:04;;;;;;;6.65;1.20;;;;;;;;;;5093584;28;20028;-72
2022/07/11 08:25:30;;;;;;;6.03;1.40;;;;;;;;;;5092182;28;20027;-71
2022/07/11 08:27:56;;;;;;;6.65;1.25;;;;;;;;;;5094087;28;20436;-71
2022/07/11 08:30:22;;;;;;;6.43;1.20;;;;;;;;;;5093446;28;20444;-70
2022/07/11 08:32:48;;;;;;;5.25;1.42;;;;;;;;;;5092803;28;20042;-72
2022/07/11 08:35:15;;;;;;;5.15;1.33;;;;;;;;;;5094491;28;20024;-70
2022/07/11 08:37:41;;;;;;;1.95;0.85;;;;;;;;;;5092851;28;20390;-71
2022/07/11 08:40:08;;;;;;;5.32;1.25;;;;;;;;;;5091441;28;20035;-74
2022/07/11 08:42:39;;;;;;;6.45;1.65;;;;;;;;;;5094847;28;20030;-72
2022/07/11 08:45:06;;;;;;;4.57;1.10;;;;;;;;;;5097688;28;20020;-72
2022/07/11 08:47:32;;;;;;;2.78;0.82;;;;;;;;;;5093747;28;20028;-72
2022/07/11 08:49:59;;;;;;;3.67;1.17;;;;;;;;;;5101192;28;20035;-71
2022/07/11 08:52:25;;;;;;;3.55;0.93;;;;;;;;;;5102217;28;20028;-73
2022/07/11 08:54:51;;;;;;;5.85;1.17;;;;;;;;;;5103692;28;20020;-71
2022/07/11 08:57:17;;;;;;;6.72;1.40;;;;;;;;;;5102557;28;20020;-72
2022/07/11 08:59:43;;;;;;;7.20;1.23;;;;;;;;;;5100503;28;20515;-72
2022/07/11 09:02:10;;;;;;;6.13;0.90;;;;;;;;;;5099531;28;20032;-72
2022/07/11 09:04:36;;;;;;;7.00;1.40;;;;;;;;;;5102093;28;20028;-72
2022/07/11 09:07:02;;;;;;;6.30;1.17;;;;;;;;;;5103159;28;20054;-76
2022/07/11 09:09:31;;;;;;;6.10;1.13;;;;;;;;;;5101974;28;20063;-72
2022/07/11 09:11:57;;;;;;;3.83;1.10;;;;;;;;;;5094991;28;20472;-72
2022/07/11 09:14:28;;;;;;;3.67;1.17;;;;;;;;;;5093450;28;20020;-73
2022/07/11 09:16:58;;;;;;;10.60;1.50;;;;;;;;;;5090583;28;20526;-73
2022/07/11 09:19:25;;;;;;;13.60;1.35;;;;;;;;;;5092621;28;20075;-72
2022/07/11 09:27:43;;;;;;;5.43;0.93;;;;;;;;;;5092158;28;20071;-71
2022/07/11 09:30:18;;;;;;;5.53;1.55;;;;;;;;;;5091700;28;20500;-72
2022/07/11 09:32:55;;;;;;;4.32;1.17;;;;;;;;;;5091975;28;20047;-72
2022/07/11 09:35:22;;;;;;;4.75;0.98;;;;;;;;;;5092620;28;20495;-72
2022/07/11 09:37:48;;;;;;;2.65;1.00;;;;;;;;;;5092248;28;20016;-73
2022/07/11 09:40:15;;;;;;;6.38;1.40;;;;;;;;;;5093740;28;20027;-70
2022/07/11 09:42:52;;;;;;;3.65;0.80;;;;;;;;;;5092253;28;20027;-72
2022/07/11 09:45:19;;;;;;;7.40;1.40;;;;;;;;;;5092015;28;20020;-72
2022/07/11 09:47:45;;;;;;;4.93;1.40;;;;;;;;;;5093291;28;20105;-71
2022/07/11 09:50:11;;;;;;;5.45;1.40;;;;;;;;;;5092926;28;20059;-71
2022/07/11 09:52:37;;;;;;;7.35;2.10;;;;;;;;;;5092508;28;20468;-72
2022/07/11 09:55:05;;;;;;;7.20;1.50;;;;;;;;;;5093201;28;20114;-72
2022/07/11 09:57:31;;;;;;;3.92;1.05;;;;;;;;;;5091975;28;20529;-71
2022/07/11 09:59:57;;;;;;;5.00;1.17;;;;;;;;;;5096049;28;20107;-73
2022/07/11 10:02:24;;;;;;;4.30;0.93;;;;;;;;;;5096221;28;20063;-72
2022/07/11 10:04:50;;;;;;;3.38;1.33;;;;;;;;;;5097364;28;20024;-73
2022/07/11 10:07:16;;;;;;;3.45;1.08;;;;;;;;;;5100110;28;20028;-73
2022/07/11 10:09:43;;;;;;;4.28;1.13;;;;;;;;;;5097078;28;20023;-74
2022/07/11 10:12:09;;;;;;;4.25;0.80;;;;;;;;;;5097659;28;20030;-72
2022/07/11 10:14:37;;;;;;;5.25;1.00;;;;;;;;;;5099165;28;20028;-72
2022/07/11 10:17:08;;;;;;;5.22;1.10;;;;;;;;;;5096409;28;20024;-70
2022/07/11 10:19:37;;;;;;;4.85;1.20;;;;;;;;;;5095053;28;20034;-72
2022/07/11 10:22:16;;;;;;;3.20;1.98;;;;;;;;;;5099029;28;20039;-72
2022/07/11 10:24:48;;;;;;;4.20;1.77;;;;;;;;;;5098323;28;20031;-71
2022/07/11 10:27:23;;;;;;;5.90;1.20;;;;;;;;;;5095948;28;20047;-70
2022/07/11 10:29:50;;;;;;;2.38;1.10;;;;;;;;;;5095687;28;20028;-72
2022/07/11 10:32:16;;;;;;;4.85;1.20;;;;;;;;;;5094909;28;20103;-72
2022/07/11 10:34:43;;;;;;;3.55;1.23;;;;;;;;;;5095481;28;20020;-74
2022/07/11 10:37:09;;;;;;;3.50;1.10;;;;;;;;;;5096396;28;20381;-72
2022/07/11 10:39:36;;;;;;;3.03;0.98;;;;;;;;;;5098066;28;20039;-71
2022/07/11 10:42:06;;;;;;;2.63;0.75;;;;;;;;;;5098154;28;20031;-72
2022/07/11 10:45:11;;;;;;;2.88;1.08;;;;;;;;;;5098757;28;20062;-73
2022/07/11 10:47:44;;;;;;;5.40;1.17;;;;;;;;;;5037580;28;20029;-72
2022/07/11 10:50:21;;;;;;;4.70;0.93;;;;;;;;;;5052521;28;20025;-71
2022/07/11 10:52:53;;;;;;;4.18;1.10;;;;;;;;;;5078142;28;20051;-70
2022/07/11 10:55:40;;;;;;;5.13;1.10;;;;;;;;;;5094622;28;20038;-70
2022/07/11 10:58:06;;;;;;;4.35;0.90;;;;;;;;;;5094834;28;20016;-70
2022/07/11 11:00:33;;;;;;;3.60;1.25;;;;;;;;;;5094940;28;20068;-71
2022/07/11 11:03:00;;;;;;;5.75;1.60;;;;;;;;;;5094616;28;20061;-71
2022/07/11 11:05:47;;;;;;;3.03;1.10;;;;;;;;;;5095068;28;20044;-71
2022/07/11 11:08:35;;;;;;;5.20;1.00;;;;;;;;;;5094505;28;20099;-72
2022/07/11 11:11:02;;;;;;;3.15;1.30;;;;;;;;;;5094327;28;20626;-72
2022/07/11 11:13:28;;;;;;;5.47;1.13;;;;;;;;;;5092666;28;20026;-71
2022/07/11 11:15:54;;;;;;;2.45;0.80;;;;;;;;;;5093343;28;20209;-70
2022/07/11 11:18:26;;;;;;;4.22;1.00;;;;;;;;;;5095112;28;20061;-72
2022/07/11 11:21:01;;;;;;;2.95;1.00;;;;;;;;;;5093605;28;20462;-73
2022/07/11 11:23:34;;;;;;;4.63;1.45;;;;;;;;;;5093730;28;20085;-70
2022/07/11 11:26:19;;;;;;;3.83;1.42;;;;;;;;;;5092459;28;20020;-74
2022/07/11 11:29:06;;;;;;;6.03;1.55;;;;;;;;;;5092765;28;20177;-72
2022/07/11 11:31:32;;;;;;;5.82;1.70;;;;;;;;;;5091964;28;20028;-72
2022/07/11 11:33:59;;;;;;;3.72;1.25;;;;;;;;;;5092031;28;20027;-71
2022/07/11 11:36:26;;;;;;;7.40;1.40;;;;;;;;;;5095608;28;20096;-73
2022/07/11 11:38:52;;;;;;;4.57;1.17;;;;;;;;;;5094212;28;20024;-73
2022/07/11 11:41:25;;;;;;;5.07;1.27;;;;;;;;;;5094345;28;20020;-72
2022/07/11 11:43:55;;;;;;;4.38;0.90;;;;;;;;;;5095100;28;20365;-71
2022/07/11 11:46:39;;;;;;;3.63;0.73;;;;;;;;;;5093682;28;20028;-71
2022/07/11 11:49:05;;;;;;;3.05;1.40;;;;;;;;;;5094842;28;20464;-72
2022/07/11 11:51:32;;;;;;;3.33;1.40;;;;;;;;;;5095143;28;20095;-76
2022/07/11 11:54:02;;;;;;;3.15;1.60;;;;;;;;;;5092664;28;20499;-72
2022/07/11 11:56:30;;;;;;;1.90;1.10;;;;;;;;;;5092039;28;20533;-73
2022/07/11 11:58:57;;;;;;;2.92;1.20;;;;;;;;;;5093208;28;20469;-72
2022/07/11 12:01:32;;;;;;;8.18;1.65;;;;;;;;;;5093141;28;20544;-71
2022/07/11 12:04:03;;;;;;;9.43;1.30;;;;;;;;;;5098463;28;20054;-71
2022/07/11 12:06:30;;;;;;;2.63;1.38;;;;;;;;;;5096865;28;20066;-72
2022/07/11 12:09:00;;;;;;;4.13;1.40;;;;;;;;;;5095934;28;20031;-72
2022/07/11 12:11:26;;;;;;;2.40;1.40;;;;;;;;;;5091976;28;20032;-71
2022/07/11 12:13:57;;;;;;;2.28;1.23;;;;;;;;;;5091976;28;20024;-71
2022/07/11 12:19:07;;;;;;;;;;;;;;;;;;5093600;28;20510;-72
2022/07/11 12:21:33;;;;;;;3.42;1.52;;;;;;;;;;5093146;28;19904;-71
2022/07/11 12:24:00;;;;;;;4.25;1.10;;;;;;;;;;5093679;28;20121;-72
2022/07/11 12:26:30;;;;;;;4.85;1.40;;;;;;;;;;5093897;28;20028;-71
2022/07/11 12:29:02;;;;;;;1.70;0.90;;;;;;;;;;5093562;28;20042;-72
2022/07/11 12:31:40;;;;;;;2.35;1.17;;;;;;;;;;5092931;28;20078;-71
2022/07/11 12:34:06;;;;;;;4.78;0.95;;;;;;;;;;5092977;28;20468;-71
2022/07/11 12:36:32;;;;;;;2.42;0.90;;;;;;;;;;5092057;28;20036;-71
2022/07/11 12:38:58;;;;;;;3.80;1.00;;;;;;;;;;5093129;28;20020;-71
2022/07/11 12:41:25;;;;;;;2.05;1.08;;;;;;;;;;5091002;28;20128;-71
2022/07/11 12:46:38;;;;;;;3.53;1.17;;;;;;;;;;5094583;28;20115;-72
2022/07/11 12:49:05;;;;;;;1.95;0.95;;;;;;;;;;5092943;28;20574;-73
2022/07/11 12:51:41;;;;;;;5.53;1.08;;;;;;;;;;5092292;28;20024;-71
2022/07/11 12:54:08;;;;;;;10.48;1.83;;;;;;;;;;5092727;28;20051;-71
2022/07/11 12:56:35;;;;;;;4.05;1.10;;;;;;;;;;5092732;28;20127;-71
2022/07/11 12:59:02;;;;;;;2.38;1.08;;;;;;;;;;5092021;28;20411;-71
2022/07/11 13:01:33;;;;;;;1.73;0.90;;;;;;;;;;5092998;28;20396;-74
2022/07/11 13:03:59;;;;;;;1.70;1.00;;;;;;;;;;5094613;28;20069;-72
2022/07/11 13:09:15;;;;;;;5.57;1.58;;;;;;;;;;5094012;28;20746;-74
2022/07/11 13:11:41;;;;;;;4.18;0.95;;;;;;;;;;5090610;28;20028;-72
2022/07/11 13:15:08;;;;;;;3.60;0.98;;;;;;;;;;5091011;28;20024;-70
2022/07/11 13:16:52;;;;;;;1.70;0.90;;;;;;;;;;5091457;28;20031;-71
2022/07/11 13:19:18;;;;;;;4.05;0.90;;;;;;;;;;5091548;28;20020;-73
2022/07/11 13:21:44;;;;;;;3.97;1.27;;;;;;;;;;5092272;28;20115;-73
2022/07/11 13:24:10;;;;;;;3.67;1.40;;;;;;;;;;5093253;28;20024;-70
2022/07/11 13:26:36;;;;;;;3.13;1.88;;;;;;;;;;5091261;28;20078;-72
2022/07/11 13:29:02;;;;;;;1.63;0.80;;;;;;;;;;5091648;28;20016;-71
2022/07/11 13:31:28;;;;;;;1.70;0.90;;;;;;;;;;5092289;28;20032;-71
2022/07/11 13:33:56;;;;;;;1.85;0.70;;;;;;;;;;5092822;28;20037;-71
2022/07/11 13:36:22;;;;;;;4.68;1.17;;;;;;;;;;5092179;28;20103;-72
2022/07/11 13:38:48;;;;;;;2.08;1.00;;;;;;;;;;5093558;28;20059;-71
2022/07/11 13:41:16;;;;;;;1.90;0.95;;;;;;;;;;5091920;28;20042;-71
2022/07/11 13:43:42;;;;;;;3.83;1.10;;;;;;;;;;5092747;28;20407;-73
2022/07/11 13:46:09;;;;;;;6.65;1.20;;;;;;;;;;5092096;28;20070;-73
2022/07/11 13:48:35;;;;;;;8.60;1.08;;;;;;;;;;5092442;28;20028;-74
2022/07/11 13:51:01;;;;;;;2.97;1.00;;;;;;;;;;5093032;28;20042;-73
2022/07/11 13:53:27;;;;;;;1.33;0.80;;;;;;;;;;5093036;28;20028;-73
2022/07/11 13:55:53;;;;;;;1.73;1.00;;;;;;;;;;5095195;28;20020;-72
2022/07/11 13:58:24;;;;;;;4.82;0.80;;;;;;;;;;5096057;28;20016;-72
2022/07/11 14:00:50;;;;;;;3.25;1.23;;;;;;;;;;5084127;22;20052;-78
2022/07/11 14:03:16;;;;;;;1.92;0.63;;;;;;;;;;5066643;28;20032;-77
2022/07/11 14:05:42;;;;;;;4.00;1.05;;;;;;;;;;5061714;28;20057;-78
2022/07/11 14:08:08;;;;;;;2.50;1.60;;;;;;;;;;5061852;28;20037;-75
2022/07/11 14:10:34;;;;;;;1.35;0.60;;;;;;;;;;5052135;28;20036;-78
2022/07/11 14:13:00;;;;;;;2.00;0.95;;;;;;;;;;5064361;28;20477;-81
2022/07/11 14:15:26;;;;;;;3.15;0.90;;;;;;;;;;5063216;28;20037;-82
2022/07/11 14:17:52;;;;;;;5.43;1.50;;;;;;;;;;5068334;28;20078;-77
2022/07/11 14:20:18;;;;;;;1.75;0.75;;;;;;;;;;5069229;28;20044;-79
2022/07/11 14:22:44;;;;;;;3.28;0.70;;;;;;;;;;5063975;28;20082;-79
2022/07/11 14:25:11;;;;;;;1.42;1.00;;;;;;;;;;5059756;28;20056;-77
2022/07/11 14:27:37;;;;;;;3.67;1.55;;;;;;;;;;5060416;28;20020;-77
2022/07/11 14:30:05;;;;;;;2.33;0.85;;;;;;;;;;5064266;28;20551;-75
2022/07/11 14:32:31;;;;;;;3.08;0.65;;;;;;;;;;5061408;28;20456;-78
2022/07/11 14:34:57;;;;;;;3.53;1.00;;;;;;;;;;5057711;28;20067;-75
2022/07/11 14:37:23;;;;;;;4.95;2.63;;;;;;;;;;5059404;28;20101;-78
2022/07/11 14:39:49;;;;;;;1.17;0.98;;;;;;;;;;5057831;28;20025;-76
2022/07/11 14:42:15;;;;;;;2.88;1.08;;;;;;;;;;5055889;28;20085;-75
2022/07/11 14:44:42;;;;;;;3.03;1.35;;;;;;;;;;5055829;28;20021;-75
2022/07/11 14:47:08;;;;;;;5.85;1.00;;;;;;;;;;5055219;28;20029;-76
2022/07/11 14:49:34;;;;;;;3.42;1.00;;;;;;;;;;5053501;28;20033;-76
2022/07/11 14:52:01;;;;;;;2.30;0.80;;;;;;;;;;5054560;28;20059;-75
2022/07/11 14:54:27;;;;;;;3.33;0.43;;;;;;;;;;5054840;28;20017;-75
2022/07/11 14:56:53;;;;;;;2.22;0.65;;;;;;;;;;5053069;28;20474;-75
2022/07/11 14:59:19;;;;;;;6.22;1.83;;;;;;;;;;5053213;28;20370;-75
2022/07/11 15:01:45;;;;;;;1.83;0.68;;;;;;;;;;5054296;28;20533;-76